createdAt,value
2023-02-13T00:01:26.823Z,7.20
2023-02-13T00:03:54.820Z,7.20
2023-02-13T00:06:43.842Z,7.20
2023-02-13T00:09:11.897Z,7.20
2023-02-13T00:11:39.689Z,7.20
2023-02-13T00:14:07.560Z,7.10
2023-02-13T00:16:37.057Z,7.10
2023-02-13T00:19:05.371Z,7.10
2023-02-13T00:21:33.226Z,7.10
2023-02-13T00:24:01.054Z,7.00
2023-02-13T00:26:28.847Z,7.00
2023-02-13T00:28:57.962Z,7.00
2023-02-13T00:31:25.894Z,6.90
2023-02-13T00:33:55.048Z,7.00
2023-02-13T00:36:24.672Z,7.00
2023-02-13T00:38:52.755Z,6.90
2023-02-13T00:41:20.568Z,6.90
2023-02-13T00:43:49.522Z,6.90
2023-02-13T00:46:18.498Z,6.90
2023-02-13T00:49:07.801Z,6.90
2023-02-13T00:51:36.342Z,6.80
2023-02-13T00:54:04.526Z,6.70
2023-02-13T00:56:32.346Z,6.70
2023-02-13T00:59:00.177Z,6.60
2023-02-13T01:01:28.005Z,6.60
2023-02-13T01:03:55.888Z,6.70
2023-02-13T01:06:25.124Z,6.60
2023-02-13T01:08:52.929Z,6.50
2023-02-13T01:11:20.816Z,6.40
2023-02-13T01:13:48.662Z,6.40
2023-02-13T01:16:17.898Z,6.40
2023-02-13T01:18:45.834Z,6.40
2023-02-13T01:21:18.918Z,6.40
2023-02-13T01:23:48.571Z,6.40
2023-02-13T01:26:20.128Z,6.30
2023-02-13T01:28:48.186Z,6.30
2023-02-13T01:31:16.147Z,6.30
2023-02-13T01:33:44.058Z,6.30
2023-02-13T01:36:14.131Z,6.30
2023-02-13T01:38:42.320Z,6.30
2023-02-13T01:41:12.131Z,6.30
2023-02-13T01:43:50.154Z,6.20
2023-02-13T01:46:24.165Z,6.20
2023-02-13T01:48:54.482Z,6.20
2023-02-13T01:51:26.751Z,6.20
2023-02-13T01:54:00.118Z,6.10
2023-02-13T01:56:32.325Z,6.00
2023-02-13T01:59:03.482Z,6.10
2023-02-13T02:01:32.754Z,6.00
2023-02-13T02:04:05.896Z,6.00
2023-02-13T02:06:37.306Z,6.10
2023-02-13T02:09:11.332Z,6.00
2023-02-13T02:11:45.954Z,6.00
2023-02-13T02:14:15.674Z,5.90
2023-02-13T02:16:50.107Z,5.90
2023-02-13T02:19:27.764Z,5.90
2023-02-13T02:22:17.252Z,5.90
2023-02-13T02:25:10.832Z,5.90
2023-02-13T02:28:17.027Z,6.00
2023-02-13T02:31:08.850Z,5.90
2023-02-13T02:33:49.768Z,6.00
2023-02-13T02:36:28.798Z,5.90
2023-02-13T02:39:07.202Z,5.90
2023-02-13T02:41:45.095Z,5.90
2023-02-13T02:44:31.413Z,5.90
2023-02-13T02:47:26.785Z,5.90
2023-02-13T02:50:08.004Z,5.90
2023-02-13T02:52:44.663Z,5.80
2023-02-13T02:55:23.502Z,5.70
2023-02-13T02:58:13.836Z,5.70
2023-02-13T03:01:01.269Z,5.60
2023-02-13T03:03:48.071Z,5.50
2023-02-13T03:06:20.894Z,5.50
2023-02-13T03:09:12.216Z,5.50
2023-02-13T03:12:00.241Z,5.50
2023-02-13T03:14:29.095Z,5.30
2023-02-13T03:17:16.742Z,5.40
2023-02-13T03:20:12.209Z,5.30
2023-02-13T03:22:54.679Z,5.20
2023-02-13T03:25:34.124Z,5.20
2023-02-13T03:28:28.374Z,5.30
2023-02-13T03:31:01.597Z,5.20
2023-02-13T03:33:55.415Z,5.20
2023-02-13T03:36:51.880Z,5.20
2023-02-13T03:39:25.027Z,5.20
2023-02-13T03:41:58.177Z,5.10
2023-02-13T03:44:31.899Z,5.10
2023-02-13T03:47:02.207Z,5.20
2023-02-13T03:49:51.652Z,5.20
2023-02-13T03:52:25.882Z,5.10
2023-02-13T03:55:15.316Z,5.10
2023-02-13T03:58:03.192Z,5.00
2023-02-13T04:00:37.210Z,5.00
2023-02-13T04:03:11.903Z,5.00
2023-02-13T04:05:43.836Z,5.00
2023-02-13T04:08:12.039Z,5.00
2023-02-13T04:10:51.169Z,4.90
2023-02-13T04:13:25.790Z,4.80
2023-02-13T04:15:58.445Z,4.80
2023-02-13T04:18:29.891Z,4.80
2023-02-13T04:20:58.155Z,4.80
2023-02-13T04:23:26.073Z,4.70
2023-02-13T04:25:56.873Z,4.70
2023-02-13T04:28:24.826Z,4.70
2023-02-13T04:30:52.727Z,4.70
2023-02-13T04:33:20.582Z,4.60
2023-02-13T04:35:48.381Z,4.60
2023-02-13T04:38:16.213Z,4.50
2023-02-13T04:40:44.038Z,4.60
2023-02-13T04:43:13.166Z,4.60
2023-02-13T04:45:41.008Z,4.60
2023-02-13T04:48:09.976Z,4.70
2023-02-13T04:50:37.779Z,4.60
2023-02-13T04:53:05.871Z,4.60
2023-02-13T04:55:33.681Z,4.60
2023-02-13T04:58:01.576Z,4.60
2023-02-13T05:00:31.054Z,4.60
2023-02-13T05:03:02.069Z,4.60
2023-02-13T05:05:29.856Z,4.60
2023-02-13T05:07:57.706Z,4.60
2023-02-13T05:10:25.528Z,4.60
2023-02-13T05:12:53.355Z,4.70
2023-02-13T05:15:22.611Z,4.60
2023-02-13T05:17:52.271Z,4.70
2023-02-13T05:20:20.506Z,4.60
2023-02-13T05:23:07.142Z,4.60
2023-02-13T05:25:35.561Z,4.60
2023-02-13T05:28:04.227Z,4.60
2023-02-13T05:30:31.329Z,4.50
2023-02-13T05:33:00.480Z,4.50
2023-02-13T05:35:28.270Z,4.50
2023-02-13T05:37:56.061Z,4.50
2023-02-13T05:40:23.860Z,4.60
2023-02-13T05:42:55.541Z,4.50
2023-02-13T05:45:23.359Z,4.50
2023-02-13T05:47:51.174Z,4.50
2023-02-13T05:50:20.498Z,4.50
2023-02-13T05:52:48.328Z,4.50
2023-02-13T05:55:16.894Z,4.50
2023-02-13T05:57:44.714Z,4.50
2023-02-13T06:00:13.712Z,4.50
2023-02-13T06:02:41.508Z,4.50
2023-02-13T06:05:09.332Z,4.50
2023-02-13T06:07:41.108Z,4.40
2023-02-13T06:10:10.849Z,4.40
2023-02-13T06:12:38.718Z,4.40
2023-02-13T06:15:07.874Z,4.40
2023-02-13T06:17:35.781Z,4.30
2023-02-13T06:20:03.676Z,4.40
2023-02-13T06:22:31.525Z,4.40
2023-02-13T06:24:59.335Z,4.40
2023-02-13T06:27:28.469Z,4.40
2023-02-13T06:29:56.491Z,4.40
2023-02-13T06:32:24.402Z,4.40
2023-02-13T06:34:52.235Z,4.40
2023-02-13T06:37:20.058Z,4.40
2023-02-13T06:39:47.874Z,4.40
2023-02-13T06:42:15.705Z,4.40
2023-02-13T06:44:44.896Z,4.40
2023-02-13T06:47:12.718Z,4.40
2023-02-13T06:49:40.534Z,4.40
2023-02-13T06:52:08.431Z,4.40
2023-02-13T06:54:46.907Z,4.40
2023-02-13T06:57:16.175Z,4.40
2023-02-13T06:59:45.608Z,4.40
2023-02-13T07:02:14.388Z,4.40
2023-02-13T07:04:42.249Z,4.40
2023-02-13T07:07:10.069Z,4.40
2023-02-13T07:09:37.901Z,4.40
2023-02-13T07:12:06.467Z,4.40
2023-02-13T07:14:34.340Z,4.40
2023-02-13T07:17:03.485Z,4.50
2023-02-13T07:19:31.646Z,4.50
2023-02-13T07:21:59.653Z,4.60
2023-02-13T07:24:27.454Z,4.60
2023-02-13T07:26:55.483Z,4.70
2023-02-13T07:29:23.284Z,4.80
2023-02-13T07:31:51.241Z,4.80
2023-02-13T07:34:20.463Z,4.80
2023-02-13T07:36:48.358Z,4.90
2023-02-13T07:39:16.386Z,4.90
2023-02-13T07:41:44.369Z,5.00
2023-02-13T07:44:12.370Z,5.10
2023-02-13T07:46:40.198Z,5.10
2023-02-13T07:49:08.047Z,5.20
2023-02-13T07:51:37.220Z,5.30
2023-02-13T07:54:05.158Z,5.40
2023-02-13T07:56:33.297Z,5.50
2023-02-13T07:59:01.121Z,5.60
2023-02-13T08:01:28.959Z,5.70
2023-02-13T08:03:56.893Z,5.80
2023-02-13T08:06:24.973Z,5.80
2023-02-13T08:09:14.434Z,6.00
2023-02-13T08:11:56.504Z,6.10
2023-02-13T08:14:26.070Z,6.30
2023-02-13T08:16:55.384Z,6.40
2023-02-13T08:19:23.221Z,6.50
2023-02-13T08:21:51.067Z,6.60
2023-02-13T08:24:20.688Z,6.60
2023-02-13T08:26:48.510Z,6.80
2023-02-13T08:29:16.424Z,6.90
2023-02-13T08:31:44.237Z,7.10
2023-02-13T08:34:12.328Z,7.20
2023-02-13T08:36:40.160Z,7.30
2023-02-13T08:39:08.022Z,7.40
2023-02-13T08:41:37.264Z,7.50
2023-02-13T08:44:05.430Z,7.60
2023-02-13T08:46:33.288Z,7.80
2023-02-13T08:49:01.160Z,7.90
2023-02-13T08:51:29.002Z,8.00
2023-02-13T08:53:56.881Z,8.10
2023-02-13T08:56:24.827Z,8.20
2023-02-13T08:58:55.075Z,8.30
2023-02-13T09:01:24.073Z,8.40
2023-02-13T09:03:52.022Z,8.50
2023-02-13T09:06:20.297Z,8.50
2023-02-13T09:08:48.187Z,8.60
2023-02-13T09:11:16.019Z,8.80
2023-02-13T09:13:44.161Z,8.90
2023-02-13T09:16:13.296Z,9.00
2023-02-13T09:18:41.111Z,9.30
2023-02-13T09:21:13.005Z,9.40
2023-02-13T09:23:42.151Z,9.40
2023-02-13T09:26:13.088Z,9.40
2023-02-13T09:28:41.741Z,9.40
2023-02-13T09:31:11.059Z,9.60
2023-02-13T09:33:40.450Z,9.60
2023-02-13T09:36:10.286Z,9.70
2023-02-13T09:38:38.482Z,9.80
2023-02-13T09:41:11.246Z,9.90
2023-02-13T09:43:44.479Z,9.90
2023-02-13T09:46:16.288Z,10.10
2023-02-13T09:48:49.473Z,10.40
2023-02-13T09:51:20.022Z,10.60
2023-02-13T09:53:54.236Z,10.70
2023-02-13T09:56:30.355Z,10.70
2023-02-13T09:59:03.746Z,10.90
2023-02-13T10:01:34.983Z,11.10
2023-02-13T10:04:25.535Z,11.10
2023-02-13T10:07:02.346Z,11.30
2023-02-13T10:09:36.467Z,11.30
2023-02-13T10:12:25.885Z,11.50
2023-02-13T10:15:03.577Z,11.50
2023-02-13T10:17:35.430Z,11.70
2023-02-13T10:20:08.205Z,11.90
2023-02-13T10:22:41.546Z,12.10
2023-02-13T10:25:17.132Z,12.20
2023-02-13T10:27:49.035Z,12.20
2023-02-13T10:30:21.725Z,12.10
2023-02-13T10:33:11.159Z,12.00
2023-02-13T10:35:40.422Z,12.20
2023-02-13T10:38:16.721Z,12.20
2023-02-13T10:40:55.013Z,12.40
2023-02-13T10:43:29.148Z,12.30
2023-02-13T10:46:08.860Z,12.20
2023-02-13T10:49:02.452Z,12.10
2023-02-13T10:51:36.527Z,12.20
2023-02-13T10:54:32.994Z,12.20
2023-02-13T10:57:11.995Z,12.50
2023-02-13T10:59:59.269Z,12.60
2023-02-13T11:02:28.677Z,12.90
2023-02-13T11:05:01.273Z,13.20
2023-02-13T11:07:32.363Z,13.40
2023-02-13T11:10:04.810Z,13.50
2023-02-13T11:12:34.447Z,13.70
2023-02-13T11:15:04.277Z,13.60
2023-02-13T11:17:35.825Z,13.60
2023-02-13T11:20:08.146Z,13.60
2023-02-13T11:22:42.417Z,13.50
2023-02-13T11:25:21.450Z,13.90
2023-02-13T11:27:53.022Z,14.10
2023-02-13T11:30:32.947Z,14.30
2023-02-13T11:33:03.004Z,14.50
2023-02-13T11:35:33.509Z,14.60
2023-02-13T11:38:15.372Z,14.80
2023-02-13T11:40:45.974Z,14.90
2023-02-13T11:43:20.428Z,14.90
2023-02-13T11:45:48.504Z,15.00
2023-02-13T11:48:23.091Z,15.00
2023-02-13T11:50:55.984Z,15.40
2023-02-13T11:53:30.310Z,15.50
2023-02-13T11:56:07.808Z,15.70
2023-02-13T11:58:36.136Z,15.70
2023-02-13T12:01:28.002Z,15.60
2023-02-13T12:04:04.513Z,15.70
2023-02-13T12:06:39.646Z,15.90
2023-02-13T12:09:13.642Z,16.10
2023-02-13T12:11:46.260Z,16.20
2023-02-13T12:14:19.437Z,16.40
2023-02-13T12:16:51.428Z,16.90
2023-02-13T12:19:25.548Z,17.00
2023-02-13T12:22:06.256Z,16.90
2023-02-13T12:24:50.082Z,17.00
2023-02-13T12:27:26.880Z,16.70
2023-02-13T12:30:18.365Z,16.80
2023-02-13T12:32:59.658Z,16.90
2023-02-13T12:35:46.262Z,16.90
2023-02-13T12:38:26.971Z,17.10
2023-02-13T12:41:13.888Z,17.20
2023-02-13T12:44:15.829Z,17.50
2023-02-13T12:46:53.664Z,17.70
2023-02-13T12:49:50.356Z,17.70
2023-02-13T12:52:34.407Z,18.00
2023-02-13T12:55:18.773Z,18.20
2023-02-13T12:58:02.070Z,18.30
2023-02-13T13:00:42.847Z,18.70
2023-02-13T13:03:36.703Z,18.90
2023-02-13T13:06:14.363Z,18.60
2023-02-13T13:09:01.485Z,18.50
2023-02-13T13:11:45.012Z,18.90
2023-02-13T13:14:25.373Z,18.90
2023-02-13T13:16:59.750Z,19.00
2023-02-13T13:19:35.874Z,19.10
2023-02-13T13:22:08.480Z,18.90
2023-02-13T13:24:52.849Z,18.50
2023-02-13T13:27:25.664Z,18.50
2023-02-13T13:29:59.089Z,18.20
2023-02-13T13:32:29.739Z,18.20
2023-02-13T13:34:58.784Z,18.10
2023-02-13T13:37:33.134Z,18.10
2023-02-13T13:40:10.486Z,18.40
2023-02-13T13:42:44.309Z,18.30
2023-02-13T13:45:28.143Z,18.40
2023-02-13T13:48:10.788Z,18.00
2023-02-13T13:50:42.542Z,18.20
2023-02-13T13:53:13.301Z,17.40
2023-02-13T13:56:04.979Z,17.20
2023-02-13T13:58:38.782Z,16.30
2023-02-13T14:01:26.034Z,15.80
2023-02-13T14:03:55.582Z,15.00
2023-02-13T14:06:25.152Z,14.50
2023-02-13T14:09:06.105Z,14.00
2023-02-13T14:11:39.414Z,13.80
2023-02-13T14:14:53.433Z,13.50
2023-02-13T14:17:54.534Z,13.30
2023-02-13T14:20:32.396Z,13.10
2023-02-13T14:23:09.237Z,13.00
2023-02-13T14:25:38.888Z,12.90
2023-02-13T14:28:07.649Z,12.90
2023-02-13T14:30:40.290Z,12.90
2023-02-13T14:33:25.168Z,12.80
2023-02-13T14:36:01.901Z,12.70
2023-02-13T14:38:31.124Z,12.50
2023-02-13T14:40:59.488Z,12.60
2023-02-13T14:43:40.618Z,12.50
2023-02-13T14:46:15.160Z,12.50
2023-02-13T14:48:48.703Z,12.40
2023-02-13T14:51:28.455Z,12.50
2023-02-13T14:54:00.918Z,12.50
2023-02-13T14:56:30.511Z,12.50
2023-02-13T14:59:08.072Z,12.50
2023-02-13T15:01:43.097Z,12.50
2023-02-13T15:04:17.667Z,12.40
2023-02-13T15:06:47.522Z,12.30
2023-02-13T15:09:38.796Z,12.30
2023-02-13T15:12:21.533Z,12.20
2023-02-13T15:14:49.400Z,12.20
2023-02-13T15:17:20.423Z,12.20
2023-02-13T15:19:52.452Z,12.20
2023-02-13T15:22:22.749Z,12.10
2023-02-13T15:24:51.157Z,12.10
2023-02-13T15:27:22.050Z,12.00
2023-02-13T15:30:01.483Z,11.90
2023-02-13T15:32:34.498Z,11.90
2023-02-13T15:35:11.068Z,11.80
2023-02-13T15:37:39.152Z,11.80
2023-02-13T15:40:22.893Z,11.70
2023-02-13T15:42:50.772Z,11.70
2023-02-13T15:45:20.150Z,11.60
2023-02-13T15:47:48.460Z,11.60
2023-02-13T15:50:22.704Z,11.50
2023-02-13T15:52:51.909Z,11.40
2023-02-13T15:55:22.725Z,11.40
2023-02-13T15:57:52.543Z,11.40
2023-02-13T16:00:25.935Z,11.40
2023-02-13T16:02:55.908Z,11.30
2023-02-13T16:05:39.405Z,11.30
2023-02-13T16:08:31.807Z,11.30
2023-02-13T16:11:30.984Z,11.20
2023-02-13T16:14:03.742Z,11.20
2023-02-13T16:16:35.375Z,11.20
2023-02-13T16:19:03.737Z,11.10
2023-02-13T16:21:34.457Z,11.00
2023-02-13T16:24:05.228Z,11.00
2023-02-13T16:26:36.012Z,10.90
2023-02-13T16:29:03.944Z,10.80
2023-02-13T16:31:32.066Z,10.80
2023-02-13T16:34:00.002Z,10.70
2023-02-13T16:36:30.548Z,10.70
2023-02-13T16:39:12.544Z,10.70
2023-02-13T16:41:40.368Z,10.50
2023-02-13T16:44:23.666Z,10.50
2023-02-13T16:46:55.538Z,10.40
2023-02-13T16:49:26.590Z,10.30
2023-02-13T16:52:08.968Z,10.20
2023-02-13T16:54:47.856Z,10.10
2023-02-13T16:57:22.947Z,10.10
2023-02-13T17:00:18.580Z,10.00
2023-02-13T17:02:47.756Z,10.00
2023-02-13T17:05:21.082Z,9.90
2023-02-13T17:07:51.026Z,9.90
2023-02-13T17:10:22.714Z,9.80
2023-02-13T17:12:52.072Z,9.80
2023-02-13T17:15:22.379Z,9.70
2023-02-13T17:17:51.555Z,9.60
2023-02-13T17:20:21.291Z,9.60
2023-02-13T17:22:51.434Z,9.60
2023-02-13T17:25:23.077Z,9.50
2023-02-13T17:27:52.107Z,9.40
2023-02-13T17:30:21.807Z,9.30
2023-02-13T17:32:51.400Z,9.20
2023-02-13T17:35:19.470Z,9.10
2023-02-13T17:37:47.278Z,9.10
2023-02-13T17:40:18.416Z,9.00
2023-02-13T17:42:51.326Z,8.90
2023-02-13T17:45:21.226Z,8.80
2023-02-13T17:47:49.155Z,8.70
2023-02-13T17:50:18.052Z,8.60
2023-02-13T17:52:47.564Z,8.60
2023-02-13T17:55:18.423Z,8.60
2023-02-13T17:57:47.632Z,8.60
2023-02-13T18:00:16.234Z,8.60
2023-02-13T18:02:44.270Z,8.50
2023-02-13T18:05:12.382Z,8.50
2023-02-13T18:07:41.455Z,8.50
2023-02-13T18:10:13.125Z,8.40
2023-02-13T18:12:41.686Z,8.30
2023-02-13T18:15:12.057Z,8.20
2023-02-13T18:17:40.351Z,8.10
2023-02-13T18:20:09.809Z,8.00
2023-02-13T18:22:37.942Z,7.90
2023-02-13T18:25:06.752Z,8.00
2023-02-13T18:27:34.795Z,8.00
2023-02-13T18:30:02.748Z,7.90
2023-02-13T18:32:32.024Z,7.90
2023-02-13T18:34:59.867Z,7.90
2023-02-13T18:37:29.428Z,7.90
2023-02-13T18:39:58.081Z,7.80
2023-02-13T18:42:26.183Z,7.80
2023-02-13T18:44:55.064Z,7.80
2023-02-13T18:47:23.129Z,7.80
2023-02-13T18:49:52.354Z,7.80
2023-02-13T18:52:20.171Z,7.70
2023-02-13T18:54:48.006Z,7.70
2023-02-13T18:57:15.818Z,7.50
2023-02-13T18:59:43.667Z,7.50
2023-02-13T19:02:11.872Z,7.50
2023-02-13T19:04:39.731Z,7.40
2023-02-13T19:07:08.903Z,7.50
2023-02-13T19:09:40.190Z,7.40
2023-02-13T19:12:09.014Z,7.40
2023-02-13T19:14:37.013Z,7.50
2023-02-13T19:17:04.839Z,7.40
2023-02-13T19:19:32.632Z,7.30
2023-02-13T19:22:00.489Z,7.20
2023-02-13T19:24:29.795Z,7.20
2023-02-13T19:26:57.630Z,7.20
2023-02-13T19:29:25.686Z,7.20
2023-02-13T19:31:53.544Z,7.20
2023-02-13T19:34:21.345Z,7.10
2023-02-13T19:36:49.207Z,7.10
2023-02-13T19:39:17.250Z,7.00
2023-02-13T19:41:46.432Z,7.00
2023-02-13T19:44:14.319Z,6.90
2023-02-13T19:46:42.457Z,6.90
2023-02-13T19:49:10.863Z,6.80
2023-02-13T19:51:41.064Z,6.80
2023-02-13T19:54:11.350Z,6.80
2023-02-13T19:56:40.636Z,6.80
2023-02-13T19:59:13.246Z,6.70
2023-02-13T20:01:42.712Z,6.70
2023-02-13T20:04:11.117Z,6.60
2023-02-13T20:06:39.163Z,6.60
2023-02-13T20:09:09.729Z,6.60
2023-02-13T20:11:38.011Z,6.60
2023-02-13T20:14:05.942Z,6.50
2023-02-13T20:16:36.797Z,6.50
2023-02-13T20:19:08.846Z,6.40
2023-02-13T20:21:37.030Z,6.50
2023-02-13T20:24:05.612Z,6.40
2023-02-13T20:26:33.910Z,6.50
2023-02-13T20:29:02.000Z,6.50
2023-02-13T20:31:31.207Z,6.40
2023-02-13T20:34:00.697Z,6.30
2023-02-13T20:36:30.385Z,6.30
2023-02-13T20:39:00.703Z,6.30
2023-02-13T20:41:31.013Z,6.30
2023-02-13T20:44:00.110Z,6.20
2023-02-13T20:46:29.909Z,6.20
2023-02-13T20:48:57.730Z,6.30
2023-02-13T20:51:26.965Z,6.50
2023-02-13T20:53:55.895Z,6.80
2023-02-13T20:56:25.520Z,6.90
2023-02-13T20:58:55.772Z,6.90
2023-02-13T21:01:25.654Z,7.00
2023-02-13T21:03:55.022Z,7.10
2023-02-13T21:06:24.221Z,7.30
2023-02-13T21:08:53.611Z,7.40
2023-02-13T21:11:22.473Z,7.30
2023-02-13T21:13:50.554Z,7.20
2023-02-13T21:16:20.909Z,7.10
2023-02-13T21:18:49.867Z,7.00
2023-02-13T21:21:18.405Z,7.00
2023-02-13T21:23:46.344Z,7.00
2023-02-13T21:26:17.045Z,7.00
2023-02-13T21:28:46.985Z,7.10
2023-02-13T21:31:16.877Z,7.30
2023-02-13T21:33:45.075Z,7.10
2023-02-13T21:36:13.768Z,7.20
2023-02-13T21:38:41.946Z,7.20
2023-02-13T21:41:13.021Z,7.30
2023-02-13T21:43:46.681Z,7.50
2023-02-13T21:46:17.642Z,7.30
2023-02-13T21:48:46.453Z,7.20
2023-02-13T21:51:15.635Z,7.00
2023-02-13T21:53:44.179Z,6.90
2023-02-13T21:56:14.246Z,7.10
2023-02-13T21:58:44.665Z,7.10
2023-02-13T22:01:25.468Z,6.80
2023-02-13T22:03:54.556Z,6.70
2023-02-13T22:06:22.511Z,6.60
2023-02-13T22:08:50.645Z,6.60
2023-02-13T22:11:19.221Z,6.60
2023-02-13T22:13:48.433Z,6.50
2023-02-13T22:16:16.758Z,6.20
2023-02-13T22:18:45.913Z,6.10
2023-02-13T22:21:15.614Z,6.20
2023-02-13T22:23:45.082Z,6.20
2023-02-13T22:26:16.992Z,6.10
2023-02-13T22:28:44.860Z,6.30
2023-02-13T22:31:15.300Z,6.10
2023-02-13T22:33:47.787Z,5.90
2023-02-13T22:36:22.010Z,5.90
2023-02-13T22:38:51.000Z,6.00
2023-02-13T22:41:21.225Z,5.80
2023-02-13T22:43:49.376Z,5.70
2023-02-13T22:46:20.779Z,5.60
2023-02-13T22:48:48.951Z,5.60
2023-02-13T22:51:19.325Z,5.60
2023-02-13T22:53:48.394Z,5.60
2023-02-13T22:56:16.744Z,5.80
2023-02-13T22:58:44.591Z,5.80
2023-02-13T23:01:13.592Z,6.00
2023-02-13T23:03:43.054Z,6.20
2023-02-13T23:06:12.996Z,6.10
2023-02-13T23:08:41.309Z,6.30
2023-02-13T23:11:29.376Z,6.40
2023-02-13T23:13:57.457Z,6.60
2023-02-13T23:16:25.662Z,6.40
2023-02-13T23:18:54.920Z,6.30
2023-02-13T23:21:23.462Z,6.30
2023-02-13T23:23:51.723Z,6.10
2023-02-13T23:26:20.067Z,6.00
2023-02-13T23:28:48.034Z,6.00
2023-02-13T23:31:15.975Z,6.10
2023-02-13T23:33:43.888Z,6.30
2023-02-13T23:36:13.077Z,6.40
2023-02-13T23:38:40.920Z,6.60
2023-02-13T23:41:09.587Z,6.50
2023-02-13T23:43:37.463Z,6.30
2023-02-13T23:46:06.240Z,6.40
2023-02-13T23:48:34.973Z,6.50
2023-02-13T23:51:03.110Z,6.60
2023-02-13T23:53:35.506Z,6.80
2023-02-13T23:56:03.350Z,6.90
2023-02-13T23:58:31.512Z,6.80
